createdAt,value
2018-02-20T00:00:45.863Z,2.90
2018-02-20T00:03:14.140Z,2.90
2018-02-20T00:05:42.275Z,2.80
2018-02-20T00:08:11.174Z,2.90
2018-02-20T00:10:40.194Z,2.90
2018-02-20T00:13:08.362Z,2.90
2018-02-20T00:15:36.505Z,2.90
2018-02-20T00:18:05.446Z,2.80
2018-02-20T00:20:33.600Z,2.60
2018-02-20T00:23:04.539Z,2.90
2018-02-20T00:25:32.670Z,2.70
2018-02-20T00:28:01.598Z,2.50
2018-02-20T00:30:29.729Z,2.60
2018-02-20T00:32:57.901Z,2.40
2018-02-20T00:35:26.035Z,2.20
2018-02-20T00:37:54.198Z,2.30
2018-02-20T00:40:22.337Z,2.40
2018-02-20T00:42:51.270Z,2.10
2018-02-20T00:45:19.425Z,2.20
2018-02-20T00:47:47.602Z,2.00
2018-02-20T00:50:15.776Z,1.60
2018-02-20T00:52:43.911Z,1.90
2018-02-20T00:55:13.458Z,2.00
2018-02-20T00:57:41.626Z,2.30
2018-02-20T01:00:09.795Z,2.30
2018-02-20T01:02:37.949Z,2.10
2018-02-20T01:05:06.087Z,2.20
2018-02-20T01:07:34.241Z,2.30
2018-02-20T01:10:02.369Z,2.00
2018-02-20T01:12:30.578Z,1.80
2018-02-20T01:14:58.721Z,1.90
2018-02-20T01:17:26.883Z,2.00
2018-02-20T01:19:55.013Z,2.00
2018-02-20T01:22:23.181Z,1.90
2018-02-20T01:24:51.317Z,1.50
2018-02-20T01:27:19.451Z,2.00
2018-02-20T01:29:48.854Z,1.80
2018-02-20T01:32:17.750Z,2.10
2018-02-20T01:34:46.671Z,1.90
2018-02-20T01:37:14.848Z,2.00
2018-02-20T01:39:42.985Z,2.10
2018-02-20T01:42:11.889Z,2.30
2018-02-20T01:44:40.042Z,2.30
2018-02-20T01:47:08.177Z,2.10
2018-02-20T01:49:36.351Z,1.80
2018-02-20T01:52:04.486Z,2.00
2018-02-20T01:54:32.645Z,1.80
2018-02-20T01:57:01.549Z,2.20
2018-02-20T01:59:29.682Z,2.20
2018-02-20T02:01:57.838Z,1.70
2018-02-20T02:04:25.974Z,1.90
2018-02-20T02:06:54.525Z,2.10
2018-02-20T02:09:23.429Z,2.40
2018-02-20T02:11:51.602Z,2.50
2018-02-20T02:14:19.803Z,2.40
2018-02-20T02:16:47.953Z,2.30
2018-02-20T02:19:16.153Z,2.10
2018-02-20T02:21:44.289Z,2.20
2018-02-20T02:24:13.223Z,2.20
2018-02-20T02:26:42.105Z,2.20
2018-02-20T02:29:10.244Z,2.10
2018-02-20T02:31:38.438Z,2.10
2018-02-20T02:34:06.574Z,2.50
2018-02-20T02:36:36.087Z,2.30
2018-02-20T02:39:04.271Z,2.40
2018-02-20T02:41:32.439Z,1.90
2018-02-20T02:44:00.581Z,2.10
2018-02-20T02:46:29.497Z,2.30
2018-02-20T02:48:58.445Z,2.20
2018-02-20T02:51:26.687Z,2.10
2018-02-20T02:53:54.874Z,1.70
2018-02-20T02:56:23.031Z,2.00
2018-02-20T02:58:51.206Z,2.00
2018-02-20T03:01:19.602Z,1.90
2018-02-20T03:03:48.039Z,2.00
2018-02-20T03:06:16.240Z,2.20
2018-02-20T03:08:44.420Z,1.80
2018-02-20T03:11:12.568Z,2.20
2018-02-20T03:13:40.757Z,2.10
2018-02-20T03:16:08.914Z,2.10
2018-02-20T03:18:37.045Z,1.90
2018-02-20T03:21:05.281Z,1.80
2018-02-20T03:23:33.434Z,2.10
2018-02-20T03:26:01.571Z,2.00
2018-02-20T03:28:29.793Z,2.10
2018-02-20T03:30:57.960Z,1.90
2018-02-20T03:33:26.129Z,2.00
2018-02-20T03:35:54.310Z,1.80
2018-02-20T03:38:22.469Z,2.00
2018-02-20T03:40:50.602Z,1.80
2018-02-20T03:43:19.547Z,1.80
2018-02-20T03:45:47.678Z,1.60
2018-02-20T03:48:16.606Z,1.50
2018-02-20T03:50:44.738Z,1.70
2018-02-20T03:53:13.658Z,1.70
2018-02-20T03:55:41.850Z,1.30
2018-02-20T03:58:10.024Z,1.60
2018-02-20T04:00:38.162Z,1.50
2018-02-20T04:03:07.182Z,1.60
2018-02-20T04:05:35.318Z,1.50
2018-02-20T04:08:04.226Z,1.40
2018-02-20T04:10:32.380Z,1.10
2018-02-20T04:13:01.414Z,1.10
2018-02-20T04:15:29.589Z,1.10
2018-02-20T04:17:57.746Z,1.00
2018-02-20T04:20:25.919Z,1.20
2018-02-20T04:22:54.078Z,1.30
2018-02-20T04:25:22.627Z,1.10
2018-02-20T04:27:50.781Z,0.90
2018-02-20T04:30:18.910Z,1.30
2018-02-20T04:32:47.073Z,1.50
2018-02-20T04:35:16.003Z,1.20
2018-02-20T04:37:44.166Z,1.20
2018-02-20T04:40:12.323Z,1.10
2018-02-20T04:42:40.504Z,1.10
2018-02-20T04:45:08.649Z,1.40
2018-02-20T04:47:37.590Z,1.10
2018-02-20T04:50:06.343Z,1.00
2018-02-20T04:52:34.482Z,1.30
2018-02-20T04:55:02.638Z,0.90
2018-02-20T04:57:30.779Z,1.10
2018-02-20T04:59:58.987Z,1.30
2018-02-20T05:02:27.231Z,1.70
2018-02-20T05:04:55.366Z,1.50
2018-02-20T05:07:24.294Z,1.50
2018-02-20T05:09:52.426Z,1.50
2018-02-20T05:12:20.913Z,1.10
2018-02-20T05:14:49.074Z,1.00
2018-02-20T05:17:17.989Z,1.20
2018-02-20T05:19:46.187Z,0.90
2018-02-20T05:22:14.326Z,1.10
2018-02-20T05:24:42.461Z,1.20
2018-02-20T05:27:10.617Z,1.00
2018-02-20T05:29:38.755Z,0.70
2018-02-20T05:32:06.911Z,0.70
2018-02-20T05:34:35.073Z,1.20
2018-02-20T05:37:04.620Z,1.10
2018-02-20T05:39:33.614Z,0.90
2018-02-20T05:42:01.764Z,0.80
2018-02-20T05:44:29.930Z,0.80
2018-02-20T05:46:58.075Z,0.90
2018-02-20T05:49:26.978Z,0.70
2018-02-20T05:51:55.906Z,0.60
2018-02-20T05:54:24.045Z,0.60
2018-02-20T05:56:52.969Z,0.80
2018-02-20T05:59:21.106Z,0.80
2018-02-20T06:01:50.052Z,0.60
2018-02-20T06:04:18.202Z,0.70
2018-02-20T06:06:46.354Z,1.00
2018-02-20T06:09:14.525Z,1.00
2018-02-20T06:11:42.659Z,0.90
2018-02-20T06:14:10.794Z,1.10
2018-02-20T06:16:38.977Z,1.00
2018-02-20T06:19:07.110Z,0.80
2018-02-20T06:21:35.274Z,1.00
2018-02-20T06:24:04.174Z,1.00
2018-02-20T06:26:32.318Z,0.90
2018-02-20T06:29:00.590Z,0.90
2018-02-20T06:31:28.821Z,0.70
2018-02-20T06:33:56.980Z,1.00
2018-02-20T06:36:25.117Z,0.70
2018-02-20T06:38:53.272Z,0.90
2018-02-20T06:41:21.468Z,1.10
2018-02-20T06:43:50.388Z,1.00
2018-02-20T06:46:18.554Z,1.10
2018-02-20T06:48:46.694Z,1.00
2018-02-20T06:51:14.854Z,1.00
2018-02-20T06:53:42.987Z,1.00
2018-02-20T06:56:11.154Z,1.30
2018-02-20T06:58:39.622Z,1.10
2018-02-20T07:01:07.814Z,1.50
2018-02-20T07:03:36.045Z,1.60
2018-02-20T07:06:04.990Z,1.80
2018-02-20T07:08:33.180Z,1.60
2018-02-20T07:11:01.329Z,2.00
2018-02-20T07:13:29.484Z,1.60
2018-02-20T07:15:57.614Z,1.70
2018-02-20T07:18:25.781Z,1.90
2018-02-20T07:20:53.917Z,1.90
2018-02-20T07:23:22.098Z,1.80
2018-02-20T07:25:50.374Z,1.60
2018-02-20T07:28:18.505Z,2.00
2018-02-20T07:30:47.433Z,2.20
2018-02-20T07:33:15.578Z,2.50
2018-02-20T07:35:43.744Z,2.50
2018-02-20T07:38:12.705Z,2.60
2018-02-20T07:40:41.631Z,2.50
2018-02-20T07:43:09.798Z,2.70
2018-02-20T07:45:38.706Z,3.10
2018-02-20T07:48:07.104Z,2.60
2018-02-20T07:50:35.371Z,2.50
2018-02-20T07:53:03.531Z,2.90
2018-02-20T07:55:31.705Z,2.80
2018-02-20T07:57:59.895Z,2.90
2018-02-20T08:00:28.070Z,2.70
2018-02-20T08:02:56.413Z,3.00
2018-02-20T08:05:24.607Z,2.70
2018-02-20T08:07:52.794Z,3.00
2018-02-20T08:10:20.925Z,3.10
2018-02-20T08:12:50.189Z,2.90
2018-02-20T08:15:18.322Z,2.90
2018-02-20T08:17:46.454Z,3.00
2018-02-20T08:20:15.373Z,3.20
2018-02-20T08:22:43.515Z,3.20
2018-02-20T08:25:11.977Z,3.10
2018-02-20T08:27:40.155Z,2.90
2018-02-20T08:30:08.290Z,3.00
2018-02-20T08:32:36.455Z,2.80
2018-02-20T08:35:04.591Z,3.20
2018-02-20T08:37:33.510Z,3.30
2018-02-20T08:40:01.699Z,3.60
2018-02-20T08:42:29.907Z,4.20
2018-02-20T08:44:58.019Z,3.90
2018-02-20T08:47:26.229Z,3.80
2018-02-20T08:49:54.678Z,3.60
2018-02-20T08:52:22.866Z,3.90
2018-02-20T08:54:51.042Z,4.00
2018-02-20T08:57:19.202Z,4.30
2018-02-20T08:59:47.511Z,4.30
2018-02-20T09:02:15.711Z,4.20
2018-02-20T09:04:43.857Z,4.30
2018-02-20T09:07:12.046Z,4.50
2018-02-20T09:09:40.174Z,4.60
2018-02-20T09:12:08.344Z,4.90
2018-02-20T09:14:36.484Z,5.10
2018-02-20T09:17:05.395Z,5.10
2018-02-20T09:19:33.562Z,5.40
2018-02-20T09:22:01.703Z,5.50
2018-02-20T09:24:29.964Z,5.60
2018-02-20T09:26:58.150Z,5.50
2018-02-20T09:29:26.305Z,6.00
2018-02-20T09:31:54.465Z,6.10
2018-02-20T09:34:22.629Z,6.50
2018-02-20T09:36:51.170Z,6.40
2018-02-20T09:39:20.086Z,6.60
2018-02-20T09:41:48.257Z,7.00
2018-02-20T09:44:16.402Z,7.00
2018-02-20T09:46:45.417Z,7.00
2018-02-20T09:49:13.586Z,7.40
2018-02-20T09:51:41.754Z,7.40
2018-02-20T09:54:09.974Z,8.10
2018-02-20T09:56:38.126Z,8.00
2018-02-20T09:59:06.271Z,8.50
2018-02-20T10:01:34.438Z,8.50
2018-02-20T10:04:02.584Z,8.80
2018-02-20T10:06:30.770Z,8.90
2018-02-20T10:08:59.315Z,8.60
2018-02-20T10:11:28.242Z,9.30
2018-02-20T10:13:57.182Z,9.00
2018-02-20T10:16:26.154Z,8.60
2018-02-20T10:18:54.302Z,8.60
2018-02-20T10:21:23.231Z,9.00
2018-02-20T10:23:51.372Z,9.40
2018-02-20T10:26:20.277Z,9.80
2018-02-20T10:28:48.458Z,10.00
2018-02-20T10:31:16.593Z,10.30
2018-02-20T10:33:44.733Z,10.70
2018-02-20T10:36:12.995Z,10.50
2018-02-20T10:38:41.142Z,10.70
2018-02-20T10:41:09.295Z,10.70
2018-02-20T10:43:38.246Z,10.90
2018-02-20T10:46:06.398Z,10.80
2018-02-20T10:48:34.547Z,11.40
2018-02-20T10:51:02.722Z,11.70
2018-02-20T10:53:30.894Z,11.90
2018-02-20T10:55:59.038Z,11.90
2018-02-20T10:58:27.424Z,11.90
2018-02-20T11:00:56.341Z,11.90
2018-02-20T11:03:24.494Z,12.30
2018-02-20T11:05:53.439Z,12.30
2018-02-20T11:08:21.594Z,12.60
2018-02-20T11:10:49.742Z,12.60
2018-02-20T11:13:17.940Z,12.70
2018-02-20T11:15:46.111Z,12.80
2018-02-20T11:18:14.280Z,13.10
2018-02-20T11:20:42.455Z,13.00
2018-02-20T11:23:11.162Z,13.30
2018-02-20T11:25:39.382Z,13.20
2018-02-20T11:28:07.594Z,13.40
2018-02-20T11:30:35.774Z,13.50
2018-02-20T11:33:03.914Z,13.10
2018-02-20T11:35:32.733Z,13.50
2018-02-20T11:38:00.923Z,13.90
2018-02-20T11:40:29.099Z,13.40
2018-02-20T11:42:57.328Z,13.50
2018-02-20T11:45:25.474Z,14.00
2018-02-20T11:47:54.431Z,14.50
2018-02-20T11:50:23.111Z,14.70
2018-02-20T11:52:51.888Z,15.40
2018-02-20T11:55:20.063Z,15.20
2018-02-20T11:57:48.323Z,15.70
2018-02-20T12:00:16.845Z,14.90
2018-02-20T12:02:44.989Z,14.60
2018-02-20T12:05:13.150Z,15.30
2018-02-20T12:07:41.293Z,15.80
2018-02-20T12:10:10.290Z,16.20
2018-02-20T12:12:38.462Z,17.30
2018-02-20T12:15:06.605Z,16.70
2018-02-20T12:17:34.776Z,17.90
2018-02-20T12:20:03.288Z,18.00
2018-02-20T12:22:32.315Z,19.30
2018-02-20T12:25:00.623Z,18.50
2018-02-20T12:27:28.794Z,18.50
2018-02-20T12:29:57.034Z,20.30
2018-02-20T12:32:25.414Z,20.80
2018-02-20T12:34:54.176Z,21.20
2018-02-20T12:37:22.370Z,22.20
2018-02-20T12:39:50.513Z,21.90
2018-02-20T12:42:19.413Z,20.90
2018-02-20T12:44:47.606Z,23.50
2018-02-20T12:47:15.747Z,23.70
2018-02-20T12:49:44.649Z,24.30
2018-02-20T12:52:12.834Z,24.40
2018-02-20T12:54:41.010Z,24.60
2018-02-20T12:57:09.199Z,24.70
2018-02-20T12:59:37.367Z,24.10
2018-02-20T13:02:05.526Z,26.60
2018-02-20T13:04:33.727Z,26.70
2018-02-20T13:07:02.474Z,27.60
2018-02-20T13:09:30.645Z,27.50
2018-02-20T13:11:59.487Z,27.10
2018-02-20T13:14:27.640Z,26.20
2018-02-20T13:16:55.819Z,26.50
2018-02-20T13:19:23.959Z,27.80
2018-02-20T13:21:52.101Z,27.70
2018-02-20T13:24:21.033Z,28.20
2018-02-20T13:26:49.175Z,26.50
2018-02-20T13:29:18.098Z,27.40
2018-02-20T13:31:46.263Z,29.00
2018-02-20T13:34:14.431Z,25.70
2018-02-20T13:36:42.578Z,26.80
2018-02-20T13:39:11.530Z,27.60
2018-02-20T13:41:40.098Z,26.40
2018-02-20T13:44:08.271Z,27.40
2018-02-20T13:46:39.261Z,27.30
2018-02-20T13:49:08.194Z,27.50
2018-02-20T13:51:36.371Z,26.40
2018-02-20T13:54:04.553Z,26.40
2018-02-20T13:56:32.723Z,27.60
2018-02-20T13:59:00.883Z,26.30
2018-02-20T14:01:29.048Z,26.20
2018-02-20T14:03:57.191Z,26.20
2018-02-20T14:06:26.090Z,26.10
2018-02-20T14:08:54.295Z,26.80
2018-02-20T14:11:22.436Z,26.20
2018-02-20T14:13:50.581Z,25.90
2018-02-20T14:16:18.747Z,26.40
2018-02-20T14:18:47.030Z,26.20
2018-02-20T14:21:16.038Z,27.30
2018-02-20T14:23:44.966Z,26.90
2018-02-20T14:26:13.138Z,28.00
2018-02-20T14:28:41.286Z,28.40
2018-02-20T14:31:09.435Z,28.90
2018-02-20T14:33:38.375Z,28.60
2018-02-20T14:36:06.526Z,26.70
2018-02-20T14:38:34.718Z,26.50
2018-02-20T14:41:02.905Z,24.70
2018-02-20T14:43:31.078Z,25.10
2018-02-20T14:45:59.251Z,25.40
2018-02-20T14:48:27.390Z,25.90
2018-02-20T14:50:55.542Z,26.00
2018-02-20T14:53:24.482Z,25.60
2018-02-20T14:55:52.659Z,24.90
2018-02-20T14:58:20.800Z,24.90
2018-02-20T15:00:48.943Z,25.40
2018-02-20T15:03:17.111Z,24.90
2018-02-20T15:05:45.338Z,23.10
2018-02-20T15:08:13.618Z,22.90
2018-02-20T15:10:41.818Z,23.00
2018-02-20T15:13:10.883Z,22.80
2018-02-20T15:15:39.051Z,22.10
2018-02-20T15:18:07.322Z,22.40
2018-02-20T15:20:35.506Z,22.70
2018-02-20T15:23:04.102Z,22.30
2018-02-20T15:25:33.713Z,20.60
2018-02-20T15:28:01.866Z,20.60
2018-02-20T15:30:30.031Z,21.00
2018-02-20T15:32:58.176Z,18.90
2018-02-20T15:35:27.115Z,19.30
2018-02-20T15:37:55.253Z,18.60
2018-02-20T15:40:23.391Z,19.30
2018-02-20T15:42:51.573Z,19.80
2018-02-20T15:45:20.506Z,19.20
2018-02-20T15:47:48.678Z,18.60
2018-02-20T15:50:16.826Z,16.90
2018-02-20T15:52:44.990Z,16.80
2018-02-20T15:55:13.931Z,15.70
2018-02-20T15:57:42.193Z,15.10
2018-02-20T16:00:10.359Z,14.20
2018-02-20T16:02:38.544Z,12.90
2018-02-20T16:05:06.719Z,10.80
2018-02-20T16:07:34.871Z,10.20
2018-02-20T16:10:03.008Z,9.10
2018-02-20T16:12:31.974Z,8.80
2018-02-20T16:15:00.189Z,7.60
2018-02-20T16:17:29.094Z,7.80
2018-02-20T16:19:57.266Z,7.50
2018-02-20T16:22:25.442Z,7.30
2018-02-20T16:24:53.631Z,6.80
2018-02-20T16:27:21.810Z,5.90
2018-02-20T16:29:50.910Z,5.70
2018-02-20T16:32:19.079Z,5.40
2018-02-20T16:34:47.225Z,5.30
2018-02-20T16:37:15.386Z,4.90
2018-02-20T16:39:43.552Z,4.50
2018-02-20T16:42:11.863Z,4.60
2018-02-20T16:44:39.998Z,4.10
2018-02-20T16:47:08.940Z,4.20
2018-02-20T16:49:37.116Z,4.00
2018-02-20T16:52:05.276Z,4.10
2018-02-20T16:54:33.418Z,3.90
2018-02-20T16:57:01.562Z,3.70
2018-02-20T16:59:29.787Z,4.10
2018-02-20T17:01:57.930Z,4.10
2018-02-20T17:04:26.848Z,4.10
2018-02-20T17:06:55.003Z,4.30
2018-02-20T17:09:23.290Z,4.00
2018-02-20T17:11:51.426Z,3.60
2018-02-20T17:14:20.362Z,3.70
2018-02-20T17:16:48.493Z,3.90
2018-02-20T17:19:17.440Z,3.90
2018-02-20T17:21:46.374Z,3.50
2018-02-20T17:24:15.314Z,3.40
2018-02-20T17:26:43.561Z,3.30
2018-02-20T17:29:11.694Z,3.60
2018-02-20T17:31:39.857Z,3.60
2018-02-20T17:34:07.991Z,3.60
2018-02-20T17:36:36.174Z,3.30
2018-02-20T17:39:04.367Z,3.10
2018-02-20T17:41:32.521Z,3.40
2018-02-20T17:44:00.666Z,3.30
2018-02-20T17:46:28.829Z,3.60
2018-02-20T17:48:57.770Z,3.40
2018-02-20T17:51:25.916Z,3.40
2018-02-20T17:53:54.050Z,3.20
2018-02-20T17:56:22.986Z,3.20
2018-02-20T17:58:51.142Z,3.00
2018-02-20T18:01:19.284Z,3.00
2018-02-20T18:03:47.530Z,2.80
2018-02-20T18:06:15.669Z,2.90
2018-02-20T18:08:43.829Z,2.90
2018-02-20T18:11:11.961Z,3.00
2018-02-20T18:13:40.191Z,2.70
2018-02-20T18:16:08.351Z,2.90
2018-02-20T18:18:36.514Z,2.90
2018-02-20T18:21:05.410Z,2.60
2018-02-20T18:23:33.547Z,2.70
2018-02-20T18:26:01.777Z,2.80
2018-02-20T18:28:29.914Z,2.50
2018-02-20T18:30:59.003Z,2.40
2018-02-20T18:33:27.914Z,2.40
2018-02-20T18:35:56.122Z,2.40
2018-02-20T18:38:25.094Z,2.30
2018-02-20T18:40:53.231Z,2.30
2018-02-20T18:43:22.138Z,2.40
2018-02-20T18:45:50.305Z,1.90
2018-02-20T18:48:19.291Z,2.00
2018-02-20T18:50:49.248Z,2.20
2018-02-20T18:53:17.410Z,1.90
2018-02-20T18:55:46.146Z,2.20
2018-02-20T18:58:15.095Z,2.50
2018-02-20T19:00:43.522Z,2.50
2018-02-20T19:03:12.450Z,2.30
2018-02-20T19:05:41.963Z,2.70
2018-02-20T19:08:10.122Z,2.70
2018-02-20T19:10:38.261Z,2.50
2018-02-20T19:13:06.513Z,2.30
2018-02-20T19:15:34.652Z,2.40
2018-02-20T19:18:02.796Z,2.20
2018-02-20T19:20:31.718Z,2.30
2018-02-20T19:22:59.893Z,2.10
2018-02-20T19:25:28.060Z,2.10
2018-02-20T19:27:56.210Z,1.80
2018-02-20T19:30:25.157Z,2.00
2018-02-20T19:32:53.327Z,2.10
2018-02-20T19:35:21.469Z,2.00
2018-02-20T19:37:51.197Z,2.00
2018-02-20T19:40:19.339Z,2.20
2018-02-20T19:42:47.555Z,2.00
2018-02-20T19:45:15.723Z,2.00
2018-02-20T19:47:43.873Z,2.20
2018-02-20T19:50:12.035Z,2.00
2018-02-20T19:52:40.248Z,2.00
2018-02-20T19:55:08.750Z,1.90
2018-02-20T19:57:36.971Z,1.80
2018-02-20T20:00:05.158Z,1.90
2018-02-20T20:02:33.303Z,1.90
2018-02-20T20:05:01.896Z,1.60
2018-02-20T20:07:30.071Z,1.80
2018-02-20T20:09:58.256Z,1.50
2018-02-20T20:12:26.414Z,1.90
2018-02-20T20:14:54.949Z,1.90
2018-02-20T20:17:23.190Z,1.70
2018-02-20T20:19:51.903Z,1.60
2018-02-20T20:22:20.087Z,1.60
2018-02-20T20:24:51.438Z,1.80
2018-02-20T20:27:21.305Z,1.50
2018-02-20T20:29:50.083Z,1.80
2018-02-20T20:32:18.729Z,1.30
2018-02-20T20:34:47.797Z,1.20
2018-02-20T20:37:15.935Z,1.20
2018-02-20T20:39:44.208Z,1.30
2018-02-20T20:42:12.358Z,1.60
2018-02-20T20:44:40.497Z,1.40
2018-02-20T20:47:08.734Z,1.20
2018-02-20T20:49:36.906Z,1.50
2018-02-20T20:52:05.362Z,1.10
2018-02-20T20:54:34.505Z,1.30
2018-02-20T20:57:02.683Z,1.30
2018-02-20T20:59:30.850Z,1.10
2018-02-20T21:01:59.098Z,1.40
2018-02-20T21:04:27.234Z,1.20
2018-02-20T21:06:56.156Z,1.30
2018-02-20T21:09:24.318Z,1.40
2018-02-20T21:11:52.454Z,1.30
2018-02-20T21:14:20.680Z,1.10
2018-02-20T21:16:48.845Z,1.10
2018-02-20T21:19:17.002Z,1.10
2018-02-20T21:21:45.173Z,1.40
2018-02-20T21:24:13.535Z,1.20
2018-02-20T21:26:42.462Z,1.40
2018-02-20T21:29:10.634Z,1.60
2018-02-20T21:31:38.798Z,1.40
2018-02-20T21:34:06.939Z,1.40
2018-02-20T21:36:35.876Z,1.50
2018-02-20T21:39:04.024Z,1.40
2018-02-20T21:41:32.221Z,1.10
2018-02-20T21:44:00.353Z,1.10
2018-02-20T21:46:29.274Z,1.40
2018-02-20T21:48:57.434Z,1.30
2018-02-20T21:51:25.566Z,1.30
2018-02-20T21:53:53.744Z,1.20
2018-02-20T21:56:21.914Z,1.40
2018-02-20T21:58:50.866Z,1.00
2018-02-20T22:01:19.026Z,1.20
2018-02-20T22:03:47.190Z,1.00
2018-02-20T22:06:15.391Z,1.20
2018-02-20T22:08:43.505Z,0.70
2018-02-20T22:11:12.410Z,1.00
2018-02-20T22:13:41.329Z,1.10
2018-02-20T22:16:09.503Z,0.90
2018-02-20T22:18:37.666Z,1.20
2018-02-20T22:21:05.851Z,1.20
2018-02-20T22:23:34.029Z,1.00
2018-02-20T22:26:02.192Z,1.20
2018-02-20T22:28:30.820Z,1.10
2018-02-20T22:30:58.994Z,0.90
2018-02-20T22:33:27.136Z,1.20
2018-02-20T22:35:55.265Z,1.10
2018-02-20T22:38:24.215Z,1.10
2018-02-20T22:40:52.355Z,0.80
2018-02-20T22:43:20.494Z,0.70
2018-02-20T22:45:49.417Z,0.70
2018-02-20T22:48:17.565Z,1.10
2018-02-20T22:50:46.514Z,0.80
2018-02-20T22:53:14.645Z,0.60
2018-02-20T22:55:42.777Z,0.80
2018-02-20T22:58:10.955Z,0.70
2018-02-20T23:00:39.096Z,0.70
2018-02-20T23:03:07.253Z,0.90
2018-02-20T23:05:35.410Z,1.00
2018-02-20T23:08:03.566Z,0.80
2018-02-20T23:10:31.700Z,1.00
2018-02-20T23:12:59.858Z,0.90
2018-02-20T23:15:28.031Z,0.90
2018-02-20T23:17:56.168Z,1.10
2018-02-20T23:20:24.338Z,0.60
2018-02-20T23:22:52.482Z,0.80
2018-02-20T23:25:21.386Z,0.90
2018-02-20T23:27:51.133Z,0.90
2018-02-20T23:30:19.286Z,1.00
2018-02-20T23:32:47.426Z,0.60
2018-02-20T23:35:16.352Z,0.60
2018-02-20T23:37:44.518Z,0.90
2018-02-20T23:40:12.650Z,0.70
2018-02-20T23:42:41.802Z,0.30
2018-02-20T23:45:10.059Z,0.80
2018-02-20T23:47:38.202Z,0.50
2018-02-20T23:50:07.109Z,0.50
2018-02-20T23:52:36.131Z,0.20
2018-02-20T23:55:04.262Z,0.20
2018-02-20T23:57:32.422Z,0.30
